WetterOnline ( http://www.wetteronline.de )

Wetter aktuell Aßlar

Aktuelles Wetter: Gießen (195m)

6-stündlich | Neueste Meldungen
Ortszeit Temperatur Wetter
Mi, 20.03. 13:00 10.5° C wolkenlos
Mi, 20.03. 7:00 -2.9° C wolkenlos
Mi, 20.03. 1:00 -0.4° C wolkenlos
Di, 19.03. 19:00 6.9° C leicht bewölkt
Di, 19.03. 13:00 6.7° C leicht bewölkt
Di, 19.03. 7:00 -3.1° C wolkenlos
Di, 19.03. 1:00 0.2° C wolkig
Mo, 18.03. 19:00 4.5° C leicht bewölkt
Ortszeit Temperatur Wetter
Mi, 20.03. 15:30 12.2° C fast wolkenlos
Mi, 20.03. 15:20 12.2° C fast wolkenlos
Mi, 20.03. 15:10 12.3° C fast wolkenlos
Mi, 20.03. 15:00 12.0° C leicht bewölkt
Mi, 20.03. 14:50 12.0° C leicht bewölkt
Mi, 20.03. 14:40 12.1° C leicht bewölkt
Mi, 20.03. 14:30 11.7° C fast wolkenlos
Mi, 20.03. 14:00 11.6° C leicht bewölkt
Mi, 20.03. 13:30 10.9° C fast wolkenlos
Mi, 20.03. 13:00 10.5° C wolkenlos
Mi, 20.03. 12:30 10.4° C wolkenlos
Ortszeit Relative Feuchte Sichtweite
Mi, 20.03. 13:00 51% 45 km
Mi, 20.03. 7:00 96% 18 km
Mi, 20.03. 1:00 90% 35 km
Di, 19.03. 19:00 53% 45 km
Di, 19.03. 13:00 51% 40 km
Di, 19.03. 7:00 99% 11 km
Di, 19.03. 1:00 91% 30 km
Mo, 18.03. 19:00 74% 50 km
Ortszeit Relative Feuchte Sichtweite
Mi, 20.03. 15:30 42% 65 km
Mi, 20.03. 15:20 42% -
Mi, 20.03. 15:10 45% -
Mi, 20.03. 15:00 44% 50 km
Mi, 20.03. 14:50 44% -
Mi, 20.03. 14:40 46% -
Mi, 20.03. 14:30 45% 50 km
Mi, 20.03. 14:00 47% 50 km
Mi, 20.03. 13:30 50% 35 km
Mi, 20.03. 13:00 51% 45 km
Mi, 20.03. 12:30 56% 30 km
Ortszeit Niederschlagsmenge Niederschlagsart
Mi, 20.03. 13:00 0.0 l/m2 in 6 Std. -
Mi, 20.03. 7:00 0.0 l/m2 in 12 Std. -
Mi, 20.03. 1:00 0.0 l/m2 in 6 Std. -
Di, 19.03. 19:00 0.0 l/m2 in 12 Std. -
Di, 19.03. 13:00 0.0 l/m2 in 6 Std. -
Di, 19.03. 7:00 0.0 l/m2 in 12 Std. -
Di, 19.03. 1:00 0.0 l/m2 in 6 Std. -
Mo, 18.03. 19:00 0.6 l/m2 in 12 Std. Regen
Ortszeit Niederschlagsmenge Niederschlagsart
Mi, 20.03. 15:30 0.0 l/m2 in 1 Std. -
Mi, 20.03. 15:20 keine Meldung -
Mi, 20.03. 15:10 keine Meldung -
Mi, 20.03. 15:00 0.0 l/m2 in 1 Std. -
Mi, 20.03. 14:50 keine Meldung -
Mi, 20.03. 14:40 keine Meldung -
Mi, 20.03. 14:30 0.0 l/m2 in 1 Std. -
Mi, 20.03. 14:00 0.0 l/m2 in 1 Std. -
Mi, 20.03. 13:30 0.0 l/m2 in 1 Std. -
Mi, 20.03. 13:00 0.0 l/m2 in 1 Std. -
Mi, 20.03. 12:30 0.0 l/m2 in 1 Std. -
Ortszeit Stärke Spitze Richtung
km/h Bft. km/h Grad Sektor
Mi, 20.03. 13:00 7 2 18 210° SW
Mi, 20.03. 7:00 2 1 7 340° N
Mi, 20.03. 1:00 4 1 14 40° NO
Di, 19.03. 19:00 6 1 22 290° W
Di, 19.03. 13:00 11 2 25 320° NW
Di, 19.03. 7:00 6 1 7 250° W
Di, 19.03. 1:00 4 1 18 270° W
Mo, 18.03. 19:00 13 3 54 250° W
Ortszeit Stärke Spitze Richtung
km/h Bft. km/h Grad Sektor
Mi, 20.03. 15:30 7 2 14 160° S
Mi, 20.03. 15:20 7 2 - 160° S
Mi, 20.03. 15:10 9 2 - 190° S
Mi, 20.03. 15:00 9 2 22 140° SO
Mi, 20.03. 14:50 9 2 - 140° SO
Mi, 20.03. 14:40 11 2 - 220° SW
Mi, 20.03. 14:30 6 1 20 170° S
Mi, 20.03. 14:00 7 2 18 180° S
Mi, 20.03. 13:30 11 2 18 180° S
Mi, 20.03. 13:00 7 2 18 210° SW
Mi, 20.03. 12:30 9 2 19 200° S
Ortszeit Untergrenze Bedeckung Gattung
total tief tief mittel hoch
Mi, 20.03. 13:00 - 0/8 0/8 - - -
Mi, 20.03. 7:00 - 0/8 0/8 - - -
Mi, 20.03. 1:00 - 0/8 0/8 - - -
Di, 19.03. 19:00 1500 m 2/8 2/8 - - -
Di, 19.03. 13:00 1260 m 4/8 4/8 - - -
Di, 19.03. 7:00 - 0/8 0/8 - - -
Di, 19.03. 1:00 1110 m 6/8 6/8 - - -
Mo, 18.03. 19:00 1800 m 3/8 3/8 - - -
Ortszeit Bedeckungsgrad in Achtel und Wolkenuntergrenze
Mi, 20.03. 15:30 2(8100m)
Mi, 20.03. 15:20 2(8100m)
Mi, 20.03. 15:10 1(9000m)
Mi, 20.03. 15:00 4(9000m)
Mi, 20.03. 14:50 4(9000m)
Mi, 20.03. 14:40 4(9000m)
Mi, 20.03. 14:30 1(8700m)
Mi, 20.03. 14:00 1(6000m) 2(10500m)
Mi, 20.03. 13:30 1(9000m) 1(9000m)
Mi, 20.03. 13:00 keine Wolken
Mi, 20.03. 12:30 keine Wolken
Ortszeit Luftdruck NN (hPa) Tendenz (hPa in 3 Std.)
Mi, 20.03. 13:00 1035 - 0,4
Mi, 20.03. 7:00 1035 + 0,7
Mi, 20.03. 1:00 1034 + 1,3
Di, 19.03. 19:00 1030 + 1,1
Di, 19.03. 13:00 1029 + 0,2
Di, 19.03. 7:00 1028 + 1,5
Di, 19.03. 1:00 1025 + 1,3
Mo, 18.03. 19:00 1021 + 1,8
Ortszeit Luftdruck NN (hPa) Tendenz (hPa in 3 Std.)
Mi, 20.03. 15:30 1034 - 0,9
Mi, 20.03. 15:20 1034 keine Meldung
Mi, 20.03. 15:10 1034 keine Meldung
Mi, 20.03. 15:00 1034 - 0,9
Mi, 20.03. 14:50 1034 keine Meldung
Mi, 20.03. 14:40 1034 keine Meldung
Mi, 20.03. 14:30 1034 - 1,1
Mi, 20.03. 14:00 1034 - 1,0
Mi, 20.03. 13:30 1034 - 0,8
Mi, 20.03. 13:00 1035 - 0,4
Mi, 20.03. 12:30 1035 - 0,3
Ortszeit Schneehöhe (cm)
Mi, 20.03. 13:00 0
Mi, 20.03. 7:00 0
Mi, 20.03. 1:00 0
Di, 19.03. 19:00 0
Di, 19.03. 13:00 0
Di, 19.03. 7:00 0
Di, 19.03. 1:00 0
Mo, 18.03. 19:00 0
Ortszeit Schneehöhe (cm)
Mi, 20.03. 15:30 0
Mi, 20.03. 15:20 0
Mi, 20.03. 15:10 0
Mi, 20.03. 15:00 0
Mi, 20.03. 14:50 0
Mi, 20.03. 14:40 0
Mi, 20.03. 14:30 0
Mi, 20.03. 14:00 0
Mi, 20.03. 13:30 0
Mi, 20.03. 13:00 0
Mi, 20.03. 12:30 0
Link zu dieser Seite / Seite empfehlen

Das Wetter in ...